sensor_id;sensor_type;location;lat;lon;timestamp;P1;durP1;ratioP1;P2;durP2;ratioP2
62123;SDS011;48110;47.532;19.078;2023-05-07T00:02:47;10.68;;;5.68;;
62123;SDS011;48110;47.532;19.078;2023-05-07T00:05:50;7.37;;;5.28;;
62123;SDS011;48110;47.532;19.078;2023-05-07T00:08:56;10.57;;;5.60;;
62123;SDS011;48110;47.532;19.078;2023-05-07T00:12:00;8.00;;;5.85;;
62123;SDS011;48110;47.532;19.078;2023-05-07T00:15:03;7.43;;;5.70;;
62123;SDS011;48110;47.532;19.078;2023-05-07T00:18:06;6.80;;;5.72;;
62123;SDS011;48110;47.532;19.078;2023-05-07T00:21:09;11.57;;;6.00;;
62123;SDS011;48110;47.532;19.078;2023-05-07T00:24:12;8.40;;;5.53;;
62123;SDS011;48110;47.532;19.078;2023-05-07T00:27:15;7.95;;;6.25;;
62123;SDS011;48110;47.532;19.078;2023-05-07T00:30:18;8.63;;;6.10;;
62123;SDS011;48110;47.532;19.078;2023-05-07T00:33:21;7.85;;;6.12;;
62123;SDS011;48110;47.532;19.078;2023-05-07T00:36:24;9.90;;;6.50;;
62123;SDS011;48110;47.532;19.078;2023-05-07T00:39:28;7.57;;;6.30;;
62123;SDS011;48110;47.532;19.078;2023-05-07T00:42:31;10.38;;;6.35;;
62123;SDS011;48110;47.532;19.078;2023-05-07T00:45:34;9.52;;;7.55;;
62123;SDS011;48110;47.532;19.078;2023-05-07T00:48:37;7.50;;;6.62;;
62123;SDS011;48110;47.532;19.078;2023-05-07T00:51:40;9.30;;;7.68;;
62123;SDS011;48110;47.532;19.078;2023-05-07T00:54:43;10.13;;;7.68;;
62123;SDS011;48110;47.532;19.078;2023-05-07T00:57:46;10.02;;;7.85;;
62123;SDS011;48110;47.532;19.078;2023-05-07T01:00:50;13.68;;;9.77;;
62123;SDS011;48110;47.532;19.078;2023-05-07T01:03:53;10.77;;;9.00;;
62123;SDS011;48110;47.532;19.078;2023-05-07T01:06:56;16.10;;;10.38;;
62123;SDS011;48110;47.532;19.078;2023-05-07T01:10:02;14.02;;;10.95;;
62123;SDS011;48110;47.532;19.078;2023-05-07T01:13:07;16.05;;;11.15;;
62123;SDS011;48110;47.532;19.078;2023-05-07T01:16:09;15.23;;;10.60;;
62123;SDS011;48110;47.532;19.078;2023-05-07T01:19:13;11.27;;;9.88;;
62123;SDS011;48110;47.532;19.078;2023-05-07T01:22:38;12.88;;;9.55;;
62123;SDS011;48110;47.532;19.078;2023-05-07T01:25:41;11.98;;;9.75;;
62123;SDS011;48110;47.532;19.078;2023-05-07T01:28:45;14.13;;;9.63;;
62123;SDS011;48110;47.532;19.078;2023-05-07T01:31:48;16.37;;;10.48;;
62123;SDS011;48110;47.532;19.078;2023-05-07T01:34:54;13.32;;;10.57;;
62123;SDS011;48110;47.532;19.078;2023-05-07T01:38:00;14.40;;;11.02;;
62123;SDS011;48110;47.532;19.078;2023-05-07T01:41:03;14.07;;;10.68;;
62123;SDS011;48110;47.532;19.078;2023-05-07T01:44:06;14.80;;;11.25;;
62123;SDS011;48110;47.532;19.078;2023-05-07T01:47:11;13.68;;;10.45;;
62123;SDS011;48110;47.532;19.078;2023-05-07T01:50:16;13.05;;;10.52;;
62123;SDS011;48110;47.532;19.078;2023-05-07T01:53:21;11.25;;;9.57;;
62123;SDS011;48110;47.532;19.078;2023-05-07T01:56:24;15.50;;;10.07;;
62123;SDS011;48110;47.532;19.078;2023-05-07T01:59:27;11.70;;;10.13;;
62123;SDS011;48110;47.532;19.078;2023-05-07T02:02:30;12.82;;;10.30;;
62123;SDS011;48110;47.532;19.078;2023-05-07T02:05:34;12.37;;;10.45;;
62123;SDS011;48110;47.532;19.078;2023-05-07T02:08:37;14.55;;;10.32;;
62123;SDS011;48110;47.532;19.078;2023-05-07T02:11:42;16.33;;;10.70;;
62123;SDS011;48110;47.532;19.078;2023-05-07T02:14:45;15.88;;;10.15;;
62123;SDS011;48110;47.532;19.078;2023-05-07T02:17:59;12.75;;;10.05;;
62123;SDS011;48110;47.532;19.078;2023-05-07T02:21:05;12.27;;;10.20;;
62123;SDS011;48110;47.532;19.078;2023-05-07T02:24:07;13.95;;;10.35;;
62123;SDS011;48110;47.532;19.078;2023-05-07T02:27:10;21.55;;;10.73;;
62123;SDS011;48110;47.532;19.078;2023-05-07T02:30:13;14.70;;;10.45;;
62123;SDS011;48110;47.532;19.078;2023-05-07T02:33:17;14.57;;;10.75;;
62123;SDS011;48110;47.532;19.078;2023-05-07T02:36:20;15.05;;;11.10;;
62123;SDS011;48110;47.532;19.078;2023-05-07T02:39:24;12.63;;;10.13;;
62123;SDS011;48110;47.532;19.078;2023-05-07T02:42:27;12.37;;;9.98;;
62123;SDS011;48110;47.532;19.078;2023-05-07T02:45:29;11.20;;;9.63;;
62123;SDS011;48110;47.532;19.078;2023-05-07T02:48:32;12.43;;;9.80;;
62123;SDS011;48110;47.532;19.078;2023-05-07T02:51:36;14.90;;;9.95;;
62123;SDS011;48110;47.532;19.078;2023-05-07T02:54:39;13.10;;;10.15;;
62123;SDS011;48110;47.532;19.078;2023-05-07T02:57:42;11.10;;;9.27;;
62123;SDS011;48110;47.532;19.078;2023-05-07T03:00:45;12.48;;;8.75;;
62123;SDS011;48110;47.532;19.078;2023-05-07T03:03:50;11.70;;;8.63;;
62123;SDS011;48110;47.532;19.078;2023-05-07T03:06:53;9.93;;;8.15;;
62123;SDS011;48110;47.532;19.078;2023-05-07T03:09:56;13.60;;;9.10;;
62123;SDS011;48110;47.532;19.078;2023-05-07T03:12:58;9.45;;;8.13;;
62123;SDS011;48110;47.532;19.078;2023-05-07T03:16:01;11.35;;;7.97;;
62123;SDS011;48110;47.532;19.078;2023-05-07T03:19:04;12.40;;;9.10;;
62123;SDS011;48110;47.532;19.078;2023-05-07T03:22:07;12.32;;;8.32;;
62123;SDS011;48110;47.532;19.078;2023-05-07T03:25:10;10.00;;;7.55;;
62123;SDS011;48110;47.532;19.078;2023-05-07T03:28:13;11.63;;;6.93;;
62123;SDS011;48110;47.532;19.078;2023-05-07T03:31:16;10.38;;;7.50;;
62123;SDS011;48110;47.532;19.078;2023-05-07T03:34:19;11.95;;;7.30;;
62123;SDS011;48110;47.532;19.078;2023-05-07T03:37:24;10.23;;;6.82;;
62123;SDS011;48110;47.532;19.078;2023-05-07T03:40:28;9.88;;;6.87;;
62123;SDS011;48110;47.532;19.078;2023-05-07T03:43:31;8.40;;;6.82;;
62123;SDS011;48110;47.532;19.078;2023-05-07T03:46:34;7.85;;;6.60;;
62123;SDS011;48110;47.532;19.078;2023-05-07T03:49:37;7.62;;;6.43;;
62123;SDS011;48110;47.532;19.078;2023-05-07T03:52:41;9.15;;;6.72;;
62123;SDS011;48110;47.532;19.078;2023-05-07T03:55:44;7.85;;;6.47;;
62123;SDS011;48110;47.532;19.078;2023-05-07T03:58:47;9.73;;;7.47;;
62123;SDS011;48110;47.532;19.078;2023-05-07T04:01:50;10.00;;;7.80;;
62123;SDS011;48110;47.532;19.078;2023-05-07T04:04:53;11.15;;;7.78;;
62123;SDS011;48110;47.532;19.078;2023-05-07T04:08:00;12.35;;;8.68;;
62123;SDS011;48110;47.532;19.078;2023-05-07T04:11:04;14.38;;;9.32;;
62123;SDS011;48110;47.532;19.078;2023-05-07T04:14:07;10.85;;;8.68;;
62123;SDS011;48110;47.532;19.078;2023-05-07T04:17:10;11.55;;;9.25;;
62123;SDS011;48110;47.532;19.078;2023-05-07T04:20:14;15.32;;;9.27;;
62123;SDS011;48110;47.532;19.078;2023-05-07T04:23:19;10.38;;;9.00;;
62123;SDS011;48110;47.532;19.078;2023-05-07T04:26:22;11.98;;;8.82;;
62123;SDS011;48110;47.532;19.078;2023-05-07T04:29:25;12.07;;;9.43;;
62123;SDS011;48110;47.532;19.078;2023-05-07T04:32:29;12.57;;;9.68;;
62123;SDS011;48110;47.532;19.078;2023-05-07T04:35:32;14.18;;;9.55;;
62123;SDS011;48110;47.532;19.078;2023-05-07T04:38:35;11.63;;;9.60;;
62123;SDS011;48110;47.532;19.078;2023-05-07T04:41:38;14.10;;;9.27;;
62123;SDS011;48110;47.532;19.078;2023-05-07T04:44:43;11.52;;;9.32;;
62123;SDS011;48110;47.532;19.078;2023-05-07T04:47:47;11.65;;;9.77;;
62123;SDS011;48110;47.532;19.078;2023-05-07T04:50:50;10.48;;;8.95;;
62123;SDS011;48110;47.532;19.078;2023-05-07T04:53:54;10.75;;;8.70;;
62123;SDS011;48110;47.532;19.078;2023-05-07T04:56:56;13.57;;;10.10;;
62123;SDS011;48110;47.532;19.078;2023-05-07T05:00:00;12.52;;;9.50;;
62123;SDS011;48110;47.532;19.078;2023-05-07T05:03:06;12.05;;;9.80;;
62123;SDS011;48110;47.532;19.078;2023-05-07T05:06:10;10.80;;;8.48;;
62123;SDS011;48110;47.532;19.078;2023-05-07T05:09:14;11.23;;;8.85;;
62123;SDS011;48110;47.532;19.078;2023-05-07T05:12:19;11.20;;;8.82;;
62123;SDS011;48110;47.532;19.078;2023-05-07T05:15:21;12.73;;;8.18;;
62123;SDS011;48110;47.532;19.078;2023-05-07T05:18:24;11.65;;;8.98;;
62123;SDS011;48110;47.532;19.078;2023-05-07T05:21:27;13.05;;;9.40;;
62123;SDS011;48110;47.532;19.078;2023-05-07T05:24:31;11.07;;;9.73;;
62123;SDS011;48110;47.532;19.078;2023-05-07T05:27:35;11.25;;;8.52;;
62123;SDS011;48110;47.532;19.078;2023-05-07T05:30:39;14.15;;;9.68;;
62123;SDS011;48110;47.532;19.078;2023-05-07T05:33:43;11.15;;;9.00;;
62123;SDS011;48110;47.532;19.078;2023-05-07T05:36:46;11.48;;;8.70;;
62123;SDS011;48110;47.532;19.078;2023-05-07T05:39:49;9.30;;;7.87;;
62123;SDS011;48110;47.532;19.078;2023-05-07T05:42:53;11.32;;;7.85;;
62123;SDS011;48110;47.532;19.078;2023-05-07T05:45:56;11.20;;;7.20;;
62123;SDS011;48110;47.532;19.078;2023-05-07T05:49:00;8.82;;;7.55;;
62123;SDS011;48110;47.532;19.078;2023-05-07T05:52:03;8.25;;;7.05;;
62123;SDS011;48110;47.532;19.078;2023-05-07T05:55:07;10.57;;;7.10;;
62123;SDS011;48110;47.532;19.078;2023-05-07T05:58:10;12.27;;;6.90;;
62123;SDS011;48110;47.532;19.078;2023-05-07T06:01:14;8.25;;;6.60;;
62123;SDS011;48110;47.532;19.078;2023-05-07T06:04:18;8.52;;;6.60;;
62123;SDS011;48110;47.532;19.078;2023-05-07T06:07:21;8.57;;;6.75;;
62123;SDS011;48110;47.532;19.078;2023-05-07T06:10:25;9.13;;;7.07;;
62123;SDS011;48110;47.532;19.078;2023-05-07T06:13:29;7.80;;;7.00;;
62123;SDS011;48110;47.532;19.078;2023-05-07T06:16:32;8.43;;;6.80;;
62123;SDS011;48110;47.532;19.078;2023-05-07T06:19:35;9.10;;;6.75;;
62123;SDS011;48110;47.532;19.078;2023-05-07T06:22:39;10.50;;;6.85;;
62123;SDS011;48110;47.532;19.078;2023-05-07T06:25:45;8.77;;;6.85;;
62123;SDS011;48110;47.532;19.078;2023-05-07T06:28:51;11.12;;;6.37;;
62123;SDS011;48110;47.532;19.078;2023-05-07T06:31:54;10.82;;;7.47;;
62123;SDS011;48110;47.532;19.078;2023-05-07T06:34:58;9.82;;;7.25;;
62123;SDS011;48110;47.532;19.078;2023-05-07T06:38:01;11.35;;;7.80;;
62123;SDS011;48110;47.532;19.078;2023-05-07T06:41:07;8.68;;;7.30;;
62123;SDS011;48110;47.532;19.078;2023-05-07T06:44:12;12.70;;;7.80;;
62123;SDS011;48110;47.532;19.078;2023-05-07T06:47:16;9.45;;;7.30;;
62123;SDS011;48110;47.532;19.078;2023-05-07T06:50:19;8.85;;;7.62;;
62123;SDS011;48110;47.532;19.078;2023-05-07T06:53:23;8.77;;;7.37;;
62123;SDS011;48110;47.532;19.078;2023-05-07T06:56:27;9.52;;;6.62;;
62123;SDS011;48110;47.532;19.078;2023-05-07T06:59:30;9.18;;;6.65;;
62123;SDS011;48110;47.532;19.078;2023-05-07T07:02:34;9.20;;;6.78;;
62123;SDS011;48110;47.532;19.078;2023-05-07T07:05:37;9.82;;;7.25;;
62123;SDS011;48110;47.532;19.078;2023-05-07T07:08:40;9.13;;;6.65;;
62123;SDS011;48110;47.532;19.078;2023-05-07T07:11:45;9.93;;;6.65;;
62123;SDS011;48110;47.532;19.078;2023-05-07T07:14:48;13.23;;;6.57;;
62123;SDS011;48110;47.532;19.078;2023-05-07T07:17:51;9.13;;;6.45;;
62123;SDS011;48110;47.532;19.078;2023-05-07T07:20:54;8.00;;;6.03;;
62123;SDS011;48110;47.532;19.078;2023-05-07T07:23:57;6.37;;;4.75;;
62123;SDS011;48110;47.532;19.078;2023-05-07T07:27:00;6.82;;;5.18;;
62123;SDS011;48110;47.532;19.078;2023-05-07T07:30:04;6.12;;;5.40;;
62123;SDS011;48110;47.532;19.078;2023-05-07T07:33:08;7.93;;;5.37;;
62123;SDS011;48110;47.532;19.078;2023-05-07T07:36:12;9.60;;;6.28;;
62123;SDS011;48110;47.532;19.078;2023-05-07T07:39:15;6.60;;;5.57;;
62123;SDS011;48110;47.532;19.078;2023-05-07T07:42:19;7.85;;;5.25;;
62123;SDS011;48110;47.532;19.078;2023-05-07T07:45:23;8.25;;;5.05;;
62123;SDS011;48110;47.532;19.078;2023-05-07T07:48:26;6.72;;;5.00;;
62123;SDS011;48110;47.532;19.078;2023-05-07T07:51:30;7.87;;;4.95;;
62123;SDS011;48110;47.532;19.078;2023-05-07T07:54:34;6.28;;;4.28;;
62123;SDS011;48110;47.532;19.078;2023-05-07T07:57:37;7.53;;;4.25;;
62123;SDS011;48110;47.532;19.078;2023-05-07T08:00:41;8.63;;;4.20;;
62123;SDS011;48110;47.532;19.078;2023-05-07T08:03:44;5.18;;;4.37;;
62123;SDS011;48110;47.532;19.078;2023-05-07T08:06:48;6.00;;;4.37;;
62123;SDS011;48110;47.532;19.078;2023-05-07T08:09:51;4.65;;;3.70;;
62123;SDS011;48110;47.532;19.078;2023-05-07T08:12:55;7.45;;;3.83;;
62123;SDS011;48110;47.532;19.078;2023-05-07T08:15:58;5.07;;;3.17;;
62123;SDS011;48110;47.532;19.078;2023-05-07T08:19:01;4.85;;;2.67;;
62123;SDS011;48110;47.532;19.078;2023-05-07T08:22:04;4.75;;;2.50;;
62123;SDS011;48110;47.532;19.078;2023-05-07T08:25:08;5.25;;;2.37;;
62123;SDS011;48110;47.532;19.078;2023-05-07T08:28:12;3.08;;;2.58;;
62123;SDS011;48110;47.532;19.078;2023-05-07T08:31:15;3.50;;;2.50;;
62123;SDS011;48110;47.532;19.078;2023-05-07T08:34:19;2.80;;;2.20;;
62123;SDS011;48110;47.532;19.078;2023-05-07T08:37:22;2.97;;;1.90;;
62123;SDS011;48110;47.532;19.078;2023-05-07T08:40:25;3.67;;;1.83;;
62123;SDS011;48110;47.532;19.078;2023-05-07T08:43:29;3.87;;;1.80;;
62123;SDS011;48110;47.532;19.078;2023-05-07T08:46:36;1.87;;;1.67;;
62123;SDS011;48110;47.532;19.078;2023-05-07T08:49:39;4.65;;;1.67;;
62123;SDS011;48110;47.532;19.078;2023-05-07T08:52:43;4.35;;;1.48;;
62123;SDS011;48110;47.532;19.078;2023-05-07T08:55:46;2.87;;;1.60;;
62123;SDS011;48110;47.532;19.078;2023-05-07T08:58:50;2.55;;;1.40;;
62123;SDS011;48110;47.532;19.078;2023-05-07T09:01:53;2.45;;;1.37;;
62123;SDS011;48110;47.532;19.078;2023-05-07T09:04:57;2.20;;;1.20;;
62123;SDS011;48110;47.532;19.078;2023-05-07T09:08:01;5.30;;;1.12;;
62123;SDS011;48110;47.532;19.078;2023-05-07T09:11:05;1.55;;;1.10;;
62123;SDS011;48110;47.532;19.078;2023-05-07T09:14:08;1.30;;;1.20;;
62123;SDS011;48110;47.532;19.078;2023-05-07T09:17:11;1.90;;;1.15;;
62123;SDS011;48110;47.532;19.078;2023-05-07T09:20:14;2.22;;;1.17;;
62123;SDS011;48110;47.532;19.078;2023-05-07T09:23:19;2.65;;;1.70;;
62123;SDS011;48110;47.532;19.078;2023-05-07T09:26:24;4.37;;;1.40;;
62123;SDS011;48110;47.532;19.078;2023-05-07T09:29:28;1.95;;;1.20;;
62123;SDS011;48110;47.532;19.078;2023-05-07T09:32:38;2.28;;;1.27;;
62123;SDS011;48110;47.532;19.078;2023-05-07T09:35:42;1.58;;;1.10;;
62123;SDS011;48110;47.532;19.078;2023-05-07T09:38:46;2.53;;;1.27;;
62123;SDS011;48110;47.532;19.078;2023-05-07T09:41:49;4.55;;;1.10;;
62123;SDS011;48110;47.532;19.078;2023-05-07T09:44:54;3.25;;;1.45;;
62123;SDS011;48110;47.532;19.078;2023-05-07T09:47:59;3.00;;;1.62;;
62123;SDS011;48110;47.532;19.078;2023-05-07T09:51:06;7.50;;;1.73;;
62123;SDS011;48110;47.532;19.078;2023-05-07T09:54:18;5.65;;;1.70;;
62123;SDS011;48110;47.532;19.078;2023-05-07T09:57:21;2.10;;;1.42;;
62123;SDS011;48110;47.532;19.078;2023-05-07T10:00:26;2.65;;;2.00;;
62123;SDS011;48110;47.532;19.078;2023-05-07T10:03:33;3.25;;;1.70;;
62123;SDS011;48110;47.532;19.078;2023-05-07T10:06:39;4.22;;;1.85;;
62123;SDS011;48110;47.532;19.078;2023-05-07T10:09:44;3.47;;;1.95;;
62123;SDS011;48110;47.532;19.078;2023-05-07T10:12:51;2.22;;;1.85;;
62123;SDS011;48110;47.532;19.078;2023-05-07T10:15:56;2.15;;;1.87;;
62123;SDS011;48110;47.532;19.078;2023-05-07T10:19:00;5.70;;;2.17;;
62123;SDS011;48110;47.532;19.078;2023-05-07T10:22:08;3.08;;;2.00;;
62123;SDS011;48110;47.532;19.078;2023-05-07T10:25:21;2.15;;;1.95;;
62123;SDS011;48110;47.532;19.078;2023-05-07T10:28:28;4.65;;;2.53;;
62123;SDS011;48110;47.532;19.078;2023-05-07T10:31:58;4.05;;;2.20;;
62123;SDS011;48110;47.532;19.078;2023-05-07T10:35:09;3.05;;;2.00;;
62123;SDS011;48110;47.532;19.078;2023-05-07T10:38:16;4.78;;;2.00;;
62123;SDS011;48110;47.532;19.078;2023-05-07T10:41:20;4.10;;;2.03;;
62123;SDS011;48110;47.532;19.078;2023-05-07T10:44:24;3.70;;;1.60;;
62123;SDS011;48110;47.532;19.078;2023-05-07T10:47:32;2.83;;;1.75;;
62123;SDS011;48110;47.532;19.078;2023-05-07T10:50:36;3.15;;;2.00;;
62123;SDS011;48110;47.532;19.078;2023-05-07T10:53:40;4.95;;;2.00;;
62123;SDS011;48110;47.532;19.078;2023-05-07T10:56:43;2.95;;;2.10;;
62123;SDS011;48110;47.532;19.078;2023-05-07T10:59:47;5.57;;;2.40;;
62123;SDS011;48110;47.532;19.078;2023-05-07T11:03:11;4.20;;;2.30;;
62123;SDS011;48110;47.532;19.078;2023-05-07T11:06:15;3.53;;;2.40;;
62123;SDS011;48110;47.532;19.078;2023-05-07T11:09:18;5.50;;;2.62;;
62123;SDS011;48110;47.532;19.078;2023-05-07T11:18:49;4.68;;;2.75;;
62123;SDS011;48110;47.532;19.078;2023-05-07T11:21:55;6.78;;;2.17;;
62123;SDS011;48110;47.532;19.078;2023-05-07T11:25:00;2.30;;;1.98;;
62123;SDS011;48110;47.532;19.078;2023-05-07T11:28:04;2.65;;;2.15;;
62123;SDS011;48110;47.532;19.078;2023-05-07T11:31:10;5.37;;;2.45;;
62123;SDS011;48110;47.532;19.078;2023-05-07T11:34:13;5.15;;;1.90;;
62123;SDS011;48110;47.532;19.078;2023-05-07T11:37:18;2.70;;;2.10;;
62123;SDS011;48110;47.532;19.078;2023-05-07T11:40:22;2.62;;;1.90;;
62123;SDS011;48110;47.532;19.078;2023-05-07T11:43:25;1.98;;;1.67;;
62123;SDS011;48110;47.532;19.078;2023-05-07T11:46:28;4.22;;;2.10;;
62123;SDS011;48110;47.532;19.078;2023-05-07T11:49:31;4.12;;;2.15;;
62123;SDS011;48110;47.532;19.078;2023-05-07T11:52:34;3.22;;;1.70;;
62123;SDS011;48110;47.532;19.078;2023-05-07T11:55:37;2.40;;;1.30;;
62123;SDS011;48110;47.532;19.078;2023-05-07T11:58:40;2.50;;;1.50;;
62123;SDS011;48110;47.532;19.078;2023-05-07T12:01:47;3.17;;;2.00;;
62123;SDS011;48110;47.532;19.078;2023-05-07T12:04:50;2.12;;;1.60;;
62123;SDS011;48110;47.532;19.078;2023-05-07T12:07:57;5.47;;;1.90;;
62123;SDS011;48110;47.532;19.078;2023-05-07T12:11:00;2.72;;;1.85;;
62123;SDS011;48110;47.532;19.078;2023-05-07T12:14:03;3.75;;;2.10;;
62123;SDS011;48110;47.532;19.078;2023-05-07T12:17:11;2.75;;;1.90;;
62123;SDS011;48110;47.532;19.078;2023-05-07T12:20:16;3.47;;;1.80;;
62123;SDS011;48110;47.532;19.078;2023-05-07T12:23:19;3.67;;;1.92;;
62123;SDS011;48110;47.532;19.078;2023-05-07T12:26:23;2.35;;;1.85;;
62123;SDS011;48110;47.532;19.078;2023-05-07T12:29:26;2.30;;;1.50;;
62123;SDS011;48110;47.532;19.078;2023-05-07T12:32:30;2.85;;;1.37;;
62123;SDS011;48110;47.532;19.078;2023-05-07T12:35:36;1.85;;;1.50;;
62123;SDS011;48110;47.532;19.078;2023-05-07T12:38:43;1.60;;;1.25;;
62123;SDS011;48110;47.532;19.078;2023-05-07T12:41:55;2.45;;;1.50;;
62123;SDS011;48110;47.532;19.078;2023-05-07T12:45:07;2.22;;;1.50;;
62123;SDS011;48110;47.532;19.078;2023-05-07T12:48:14;2.33;;;1.90;;
62123;SDS011;48110;47.532;19.078;2023-05-07T12:51:17;2.75;;;1.90;;
62123;SDS011;48110;47.532;19.078;2023-05-07T12:54:27;4.87;;;1.80;;
62123;SDS011;48110;47.532;19.078;2023-05-07T12:57:37;4.18;;;1.75;;
62123;SDS011;48110;47.532;19.078;2023-05-07T13:00:41;4.68;;;2.10;;
62123;SDS011;48110;47.532;19.078;2023-05-07T13:03:47;2.47;;;2.00;;
62123;SDS011;48110;47.532;19.078;2023-05-07T13:06:53;6.15;;;2.20;;
62123;SDS011;48110;47.532;19.078;2023-05-07T13:09:56;3.50;;;1.60;;
62123;SDS011;48110;47.532;19.078;2023-05-07T13:12:59;3.70;;;2.05;;
62123;SDS011;48110;47.532;19.078;2023-05-07T13:16:02;3.03;;;1.87;;
62123;SDS011;48110;47.532;19.078;2023-05-07T13:19:06;4.60;;;2.20;;
62123;SDS011;48110;47.532;19.078;2023-05-07T13:22:09;3.47;;;1.90;;
62123;SDS011;48110;47.532;19.078;2023-05-07T13:25:12;4.97;;;1.65;;
62123;SDS011;48110;47.532;19.078;2023-05-07T13:28:16;3.03;;;2.08;;
62123;SDS011;48110;47.532;19.078;2023-05-07T13:31:22;4.12;;;2.03;;
62123;SDS011;48110;47.532;19.078;2023-05-07T13:34:25;10.98;;;1.98;;
62123;SDS011;48110;47.532;19.078;2023-05-07T13:37:28;5.78;;;2.50;;
62123;SDS011;48110;47.532;19.078;2023-05-07T13:40:31;5.82;;;2.30;;
62123;SDS011;48110;47.532;19.078;2023-05-07T13:43:34;3.17;;;1.98;;
62123;SDS011;48110;47.532;19.078;2023-05-07T13:46:37;5.15;;;1.85;;
62123;SDS011;48110;47.532;19.078;2023-05-07T13:49:40;3.55;;;2.00;;
62123;SDS011;48110;47.532;19.078;2023-05-07T13:52:43;6.28;;;2.33;;
62123;SDS011;48110;47.532;19.078;2023-05-07T13:55:53;3.42;;;2.00;;
62123;SDS011;48110;47.532;19.078;2023-05-07T13:58:56;3.83;;;2.33;;
62123;SDS011;48110;47.532;19.078;2023-05-07T14:02:02;4.60;;;2.40;;
62123;SDS011;48110;47.532;19.078;2023-05-07T14:05:05;2.75;;;2.30;;
62123;SDS011;48110;47.532;19.078;2023-05-07T14:08:08;2.72;;;2.35;;
62123;SDS011;48110;47.532;19.078;2023-05-07T14:11:11;5.60;;;2.12;;
62123;SDS011;48110;47.532;19.078;2023-05-07T14:14:14;2.60;;;1.92;;
62123;SDS011;48110;47.532;19.078;2023-05-07T14:17:19;4.15;;;2.10;;
62123;SDS011;48110;47.532;19.078;2023-05-07T14:20:22;4.25;;;1.83;;
62123;SDS011;48110;47.532;19.078;2023-05-07T14:23:25;2.50;;;1.90;;
62123;SDS011;48110;47.532;19.078;2023-05-07T14:26:28;2.87;;;1.90;;
62123;SDS011;48110;47.532;19.078;2023-05-07T14:29:31;4.82;;;1.87;;
62123;SDS011;48110;47.532;19.078;2023-05-07T14:32:45;5.28;;;2.05;;
62123;SDS011;48110;47.532;19.078;2023-05-07T14:35:48;2.45;;;1.92;;
62123;SDS011;48110;47.532;19.078;2023-05-07T14:38:52;2.75;;;1.90;;
62123;SDS011;48110;47.532;19.078;2023-05-07T14:41:57;7.97;;;2.20;;
62123;SDS011;48110;47.532;19.078;2023-05-07T14:44:59;2.62;;;2.17;;
62123;SDS011;48110;47.532;19.078;2023-05-07T14:48:03;2.67;;;2.20;;
62123;SDS011;48110;47.532;19.078;2023-05-07T14:51:06;3.60;;;2.50;;
62123;SDS011;48110;47.532;19.078;2023-05-07T14:54:09;4.57;;;2.20;;
62123;SDS011;48110;47.532;19.078;2023-05-07T14:57:13;4.47;;;2.67;;
62123;SDS011;48110;47.532;19.078;2023-05-07T15:00:18;3.40;;;2.50;;
62123;SDS011;48110;47.532;19.078;2023-05-07T15:03:21;3.47;;;2.83;;
62123;SDS011;48110;47.532;19.078;2023-05-07T15:06:24;4.43;;;2.95;;
62123;SDS011;48110;47.532;19.078;2023-05-07T15:09:28;6.57;;;3.35;;
62123;SDS011;48110;47.532;19.078;2023-05-07T15:12:32;5.62;;;3.40;;
62123;SDS011;48110;47.532;19.078;2023-05-07T15:15:34;3.47;;;2.92;;
62123;SDS011;48110;47.532;19.078;2023-05-07T15:18:46;6.95;;;3.17;;
62123;SDS011;48110;47.532;19.078;2023-05-07T15:21:49;4.97;;;3.37;;
62123;SDS011;48110;47.532;19.078;2023-05-07T15:24:52;3.70;;;3.22;;
62123;SDS011;48110;47.532;19.078;2023-05-07T15:28:01;4.20;;;3.08;;
62123;SDS011;48110;47.532;19.078;2023-05-07T15:31:05;4.35;;;3.10;;
62123;SDS011;48110;47.532;19.078;2023-05-07T15:34:09;5.95;;;3.40;;
62123;SDS011;48110;47.532;19.078;2023-05-07T15:37:12;5.32;;;3.08;;
62123;SDS011;48110;47.532;19.078;2023-05-07T15:40:15;8.23;;;2.90;;
62123;SDS011;48110;47.532;19.078;2023-05-07T15:43:18;4.00;;;3.00;;
62123;SDS011;48110;47.532;19.078;2023-05-07T15:46:21;7.15;;;2.75;;
62123;SDS011;48110;47.532;19.078;2023-05-07T15:49:27;3.83;;;2.45;;
62123;SDS011;48110;47.532;19.078;2023-05-07T15:52:29;4.82;;;2.55;;
62123;SDS011;48110;47.532;19.078;2023-05-07T15:55:32;3.45;;;2.10;;
62123;SDS011;48110;47.532;19.078;2023-05-07T15:58:35;2.42;;;2.03;;
62123;SDS011;48110;47.532;19.078;2023-05-07T16:01:38;2.40;;;2.17;;
62123;SDS011;48110;47.532;19.078;2023-05-07T16:04:42;6.28;;;2.30;;
62123;SDS011;48110;47.532;19.078;2023-05-07T16:07:45;4.20;;;1.90;;
62123;SDS011;48110;47.532;19.078;2023-05-07T16:10:49;2.35;;;1.60;;
62123;SDS011;48110;47.532;19.078;2023-05-07T16:13:52;4.72;;;1.80;;
62123;SDS011;48110;47.532;19.078;2023-05-07T16:16:55;2.70;;;1.85;;
62123;SDS011;48110;47.532;19.078;2023-05-07T16:19:58;3.97;;;1.90;;
62123;SDS011;48110;47.532;19.078;2023-05-07T16:23:03;3.90;;;1.92;;
62123;SDS011;48110;47.532;19.078;2023-05-07T16:26:06;5.68;;;2.03;;
62123;SDS011;48110;47.532;19.078;2023-05-07T16:29:09;4.97;;;1.52;;
62123;SDS011;48110;47.532;19.078;2023-05-07T16:32:12;3.65;;;1.52;;
62123;SDS011;48110;47.532;19.078;2023-05-07T16:35:15;3.42;;;1.87;;
62123;SDS011;48110;47.532;19.078;2023-05-07T16:38:18;4.72;;;1.60;;
62123;SDS011;48110;47.532;19.078;2023-05-07T16:41:21;4.10;;;1.60;;
62123;SDS011;48110;47.532;19.078;2023-05-07T16:44:24;7.43;;;1.77;;
62123;SDS011;48110;47.532;19.078;2023-05-07T16:47:27;2.70;;;1.30;;
62123;SDS011;48110;47.532;19.078;2023-05-07T16:50:30;4.40;;;1.55;;
62123;SDS011;48110;47.532;19.078;2023-05-07T16:53:33;5.12;;;1.60;;
62123;SDS011;48110;47.532;19.078;2023-05-07T16:56:37;6.25;;;1.70;;
62123;SDS011;48110;47.532;19.078;2023-05-07T16:59:40;7.60;;;1.70;;
62123;SDS011;48110;47.532;19.078;2023-05-07T17:02:42;4.70;;;1.90;;
62123;SDS011;48110;47.532;19.078;2023-05-07T17:05:47;2.80;;;1.50;;
62123;SDS011;48110;47.532;19.078;2023-05-07T17:08:49;6.10;;;1.80;;
62123;SDS011;48110;47.532;19.078;2023-05-07T17:11:53;3.65;;;1.60;;
62123;SDS011;48110;47.532;19.078;2023-05-07T17:14:55;3.87;;;1.90;;
62123;SDS011;48110;47.532;19.078;2023-05-07T17:17:58;3.53;;;2.00;;
62123;SDS011;48110;47.532;19.078;2023-05-07T17:21:01;3.50;;;1.58;;
62123;SDS011;48110;47.532;19.078;2023-05-07T17:24:04;4.05;;;2.60;;
62123;SDS011;48110;47.532;19.078;2023-05-07T17:27:07;7.30;;;1.90;;
62123;SDS011;48110;47.532;19.078;2023-05-07T17:30:10;2.40;;;1.55;;
62123;SDS011;48110;47.532;19.078;2023-05-07T17:33:13;3.28;;;1.90;;
62123;SDS011;48110;47.532;19.078;2023-05-07T17:36:23;2.47;;;1.80;;
62123;SDS011;48110;47.532;19.078;2023-05-07T17:39:26;4.40;;;1.58;;
62123;SDS011;48110;47.532;19.078;2023-05-07T17:42:29;2.30;;;1.55;;
62123;SDS011;48110;47.532;19.078;2023-05-07T17:45:33;2.97;;;1.50;;
62123;SDS011;48110;47.532;19.078;2023-05-07T17:48:36;2.33;;;1.50;;
62123;SDS011;48110;47.532;19.078;2023-05-07T17:51:38;1.60;;;1.35;;
62123;SDS011;48110;47.532;19.078;2023-05-07T17:54:56;1.95;;;1.50;;
62123;SDS011;48110;47.532;19.078;2023-05-07T17:57:59;6.82;;;1.62;;
62123;SDS011;48110;47.532;19.078;2023-05-07T18:01:02;5.65;;;1.80;;
62123;SDS011;48110;47.532;19.078;2023-05-07T18:04:05;4.68;;;2.47;;
62123;SDS011;48110;47.532;19.078;2023-05-07T18:07:07;5.50;;;2.50;;
62123;SDS011;48110;47.532;19.078;2023-05-07T18:10:11;3.67;;;2.20;;
62123;SDS011;48110;47.532;19.078;2023-05-07T18:13:14;4.07;;;2.40;;
62123;SDS011;48110;47.532;19.078;2023-05-07T18:16:17;3.03;;;2.30;;